Time;durP1;ratioP1;P1;durP2;ratioP2;P2;SDS_P1;SDS_P2;PMS_P1;PMS_P2;Temp;Humidity;BMP_temperature;BMP_pressure;BME280_temperature;BME280_humidity;BME280_pressure;Samples;Min_cycle;Max_cycle;Signal;HPM_P1;HPM_P2
2022/08/01 00:02:52;;;;;;;2.70;2.47;;;;;;;23.77;47.39;98723.75;6924303;28;20364;-78
2022/08/01 00:06:13;;;;;;;4.93;2.60;;;;;;;24.02;47.67;98755.72;6924283;28;20311;-79
2022/08/01 00:09:35;;;;;;;3.93;2.40;;;;;;;24.07;47.00;98741.91;6923816;28;20382;-78
2022/08/01 00:12:56;;;;;;;2.77;2.57;;;;;;;24.10;47.40;98742.13;6924037;28;20221;-78
2022/08/01 00:16:22;;;;;;;4.27;2.40;;;;;;;24.28;46.74;98749.63;6924275;28;20277;-78
2022/08/01 00:19:43;;;;;;;3.10;2.80;;;;;;;23.75;47.86;98745.25;6923274;28;20206;-78
2022/08/01 00:23:05;;;;;;;3.03;2.73;;;;;;;23.79;48.13;98759.25;6924047;28;20224;-79
2022/08/01 00:26:27;;;;;;;2.80;2.53;;;;;;;23.80;47.56;98750.72;6923927;28;20214;-78
2022/08/01 00:29:48;;;;;;;3.13;2.50;;;;;;;23.78;47.81;98763.94;6922453;28;20290;-78
2022/08/01 00:33:11;;;;;;;3.40;2.63;;;;;;;23.86;47.78;98760.56;6923311;28;20782;-78
2022/08/01 00:36:33;;;;;;;3.53;2.67;;;;;;;23.72;48.09;98767.84;6922737;28;20295;-78
2022/08/01 00:39:54;;;;;;;3.20;2.57;;;;;;;23.79;47.75;98751.78;6923328;28;20191;-78
2022/08/01 00:43:16;;;;;;;3.63;3.20;;;;;;;23.61;47.49;98743.47;6923061;28;20270;-78
2022/08/01 00:46:37;;;;;;;3.13;2.80;;;;;;;23.53;48.04;98763.34;6923111;28;20302;-78
2022/08/01 00:50:00;;;;;;;3.20;2.90;;;;;;;23.28;48.98;98769.91;6922555;28;20319;-79
2022/08/01 00:53:22;;;;;;;3.83;2.80;;;;;;;23.54;48.21;98768.56;6923209;28;20710;-78
2022/08/01 00:56:43;;;;;;;2.63;2.43;;;;;;;22.69;49.84;98718.88;6923102;28;20685;-79
2022/08/01 01:00:06;;;;;;;2.90;2.70;;;;;;;23.01;49.64;98760.47;6922484;28;20302;-78
2022/08/01 01:03:28;;;;;;;3.43;2.67;;;;;;;23.14;49.31;98766.13;6923142;28;20593;-78
2022/08/01 01:06:58;;;;;;;3.27;2.70;;;;;;;22.96;49.98;98766.00;6942445;28;20228;-78
2022/08/01 01:10:22;;;;;;;3.53;3.23;;;;;;;22.70;50.56;98768.09;6944498;28;20256;-79
2022/08/01 01:13:46;;;;;;;3.00;2.70;;;;;;;22.76;49.44;98733.13;6932083;28;20312;-78
2022/08/01 01:17:08;;;;;;;4.93;3.00;;;;;;;22.64;50.71;98751.91;6922397;28;20275;-78
2022/08/01 01:20:35;;;;;;;3.37;3.07;;;;;;;22.70;50.32;98776.34;6922626;28;20200;-78
2022/08/01 01:24:05;;;;;;;3.30;3.00;;;;;;;22.92;49.73;98776.75;6922589;28;20226;-78
2022/08/01 01:27:37;;;;;;;2.90;2.70;;;;;;;22.96;50.08;98779.75;6922078;28;20206;-78
2022/08/01 01:31:00;;;;;;;3.30;2.80;;;;;;;22.78;50.34;98781.22;6922127;28;20324;-80
2022/08/01 01:34:22;;;;;;;3.23;2.93;;;;;;;23.00;49.46;98770.63;6925330;28;20242;-79
2022/08/01 01:37:45;;;;;;;3.43;3.13;;;;;;;22.42;51.25;98782.50;6921692;28;20363;-78
2022/08/01 01:41:07;;;;;;;3.37;3.10;;;;;;;22.44;51.35;98785.84;6921822;28;20617;-80
2022/08/01 01:44:29;;;;;;;2.77;2.57;;;;;;;22.68;50.51;98783.22;6921385;28;20700;-78
2022/08/01 01:47:53;;;;;;;3.57;3.00;;;;;;;22.93;49.87;98792.16;6921455;28;20220;-78
2022/08/01 01:51:16;;;;;;;4.43;2.90;;;;;;;22.82;50.30;98781.47;6924828;28;21963;-78
2022/08/01 01:54:40;;;;;;;3.30;3.00;;;;;;;22.38;51.23;98777.84;6921517;28;20282;-78
2022/08/01 01:58:02;;;;;;;3.10;2.90;;;;;;;22.33;51.90;98791.59;6920942;28;20285;-78
2022/08/01 02:01:26;;;;;;;3.93;3.23;;;;;;;22.18;52.36;98795.22;6921341;28;20292;-78
2022/08/01 02:04:49;;;;;;;3.30;3.00;;;;;;;22.24;52.09;98777.63;6921480;28;20247;-79
2022/08/01 02:08:12;;;;;;;4.50;3.10;;;;;;;22.49;51.77;98788.53;6920898;28;20293;-78
2022/08/01 02:11:34;;;;;;;6.97;3.53;;;;;;;22.45;50.96;98787.47;6921217;28;20233;-78
2022/08/01 02:14:56;;;;;;;3.10;2.70;;;;;;;22.58;51.22;98786.84;6920993;28;20736;-78
2022/08/01 02:18:18;;;;;;;3.53;3.20;;;;;;;22.41;51.52;98785.50;6919404;28;20213;-78
2022/08/01 02:21:45;;;;;;;4.37;3.60;;;;;;;21.90;52.69;98773.88;6921279;28;20221;-78
2022/08/01 02:25:11;;;;;;;5.13;3.70;;;;;;;22.21;52.26;98800.16;6920900;28;20219;-78
2022/08/01 02:28:36;;;;;;;3.77;3.47;;;;;;;22.48;51.35;98786.88;6920188;28;20196;-78
2022/08/01 02:31:58;;;;;;;3.27;2.90;;;;;;;22.25;52.12;98795.75;6920695;28;20328;-78
2022/08/01 02:35:23;;;;;;;4.80;3.13;;;;;;;22.36;51.93;98804.78;6921014;28;20214;-78
2022/08/01 02:38:47;;;;;;;4.43;3.23;;;;;;;22.45;51.31;98800.38;6920196;28;20284;-78
2022/08/01 02:42:09;;;;;;;5.03;3.40;;;;;;;22.01;53.16;98794.72;6921091;28;20223;-78
2022/08/01 02:45:32;;;;;;;3.80;3.50;;;;;;;22.00;52.77;98803.22;6921098;28;20297;-78
2022/08/01 02:48:54;;;;;;;5.43;3.57;;;;;;;21.62;53.69;98795.59;6920235;28;20215;-78
2022/08/01 02:52:17;;;;;;;4.30;3.63;;;;;;;22.11;52.48;98788.38;6927075;28;20239;-78
2022/08/01 02:55:41;;;;;;;5.53;3.53;;;;;;;22.37;51.58;98790.75;6925912;28;20700;-78
2022/08/01 02:59:05;;;;;;;3.50;3.20;;;;;;;22.57;50.93;98795.38;6946382;28;20669;-78
2022/08/01 03:02:28;;;;;;;5.40;3.53;;;;;;;22.12;52.75;98818.31;6947104;28;20709;-79
2022/08/01 03:05:49;;;;;;;4.13;3.60;;;;;;;21.60;53.60;98801.34;6946810;28;20284;-78
2022/08/01 03:09:11;;;;;;;3.37;3.00;;;;;;;22.07;52.95;98815.56;6946226;28;20209;-78
2022/08/01 03:12:35;;;;;;;3.73;3.43;;;;;;;22.01;52.66;98811.19;6946672;28;20720;-78
2022/08/01 03:15:58;;;;;;;3.40;3.10;;;;;;;21.88;52.99;98788.97;6946099;28;20782;-78
2022/08/01 03:19:21;;;;;;;5.00;3.40;;;;;;;21.96;52.92;98815.88;6944877;28;20246;-78
2022/08/01 03:22:44;;;;;;;4.37;3.53;;;;;;;21.95;53.40;98817.00;6945491;28;20589;-78
2022/08/01 03:26:06;;;;;;;3.77;3.40;;;;;;;22.26;52.72;98813.06;6945532;28;20209;-78
2022/08/01 03:29:30;;;;;;;4.30;3.90;;;;;;;22.20;52.52;98820.47;6945315;28;20216;-78
2022/08/01 03:32:52;;;;;;;4.17;3.53;;;;;;;21.71;53.96;98822.22;6962461;28;20215;-78
2022/08/01 03:36:15;;;;;;;4.27;3.60;;;;;;;22.10;53.07;98817.78;6966336;28;20206;-78
2022/08/01 03:39:41;;;;;;;4.20;3.57;;;;;;;22.06;53.14;98824.13;6950313;28;20211;-78
2022/08/01 03:43:06;;;;;;;4.53;3.77;;;;;;;22.15;52.71;98822.44;6948826;28;20230;-78
2022/08/01 03:46:36;;;;;;;3.77;3.40;;;;;;;22.17;52.58;98826.53;6949126;28;20678;-78
2022/08/01 03:49:58;;;;;;;3.67;3.30;;;;;;;21.98;53.16;98824.66;6944208;28;20283;-78
2022/08/01 03:53:23;;;;;;;4.13;3.73;;;;;;;21.92;52.98;98823.88;6920851;28;20290;-78
2022/08/01 03:56:47;;;;;;;3.73;3.43;;;;;;;21.59;54.31;98796.97;6921097;28;20211;-78
2022/08/01 04:00:09;;;;;;;4.00;3.70;;;;;;;21.70;54.34;98826.09;6919929;28;20238;-77
2022/08/01 04:03:33;;;;;;;7.87;4.10;;;;;;;21.51;54.91;98829.63;6919588;28;20291;-80
2022/08/01 04:06:54;;;;;;;7.40;3.87;;;;;;;21.64;54.64;98818.09;6919517;28;20747;-76
2022/08/01 04:10:17;;;;;;;4.97;3.67;;;;;;;22.16;53.19;98827.66;6918789;28;20379;-76
2022/08/01 04:13:38;;;;;;;3.73;3.43;;;;;;;22.30;52.23;98834.19;6919067;28;20314;-77
2022/08/01 04:17:00;;;;;;;4.87;3.57;;;;;;;22.21;52.50;98824.06;6918506;28;20211;-76
2022/08/01 04:20:23;;;;;;;3.63;3.33;;;;;;;22.13;53.09;98832.88;6919458;28;20228;-79
2022/08/01 04:23:45;;;;;;;4.33;3.70;;;;;;;21.86;54.37;98833.22;6920023;28;20328;-79
2022/08/01 04:27:11;;;;;;;3.90;3.50;;;;;;;22.18;53.20;98833.69;6919125;28;20255;-79
2022/08/01 04:30:35;;;;;;;3.97;3.67;;;;;;;22.41;52.34;98833.06;6918536;28;20705;-77
2022/08/01 04:33:56;;;;;;;4.20;3.50;;;;;;;22.39;52.83;98850.91;6918952;28;20241;-77
2022/08/01 04:37:20;;;;;;;4.27;3.70;;;;;;;22.44;51.82;98813.31;6918437;28;20241;-77
2022/08/01 04:40:42;;;;;;;4.40;3.90;;;;;;;22.18;53.20;98828.19;6924780;28;20214;-77
2022/08/01 04:44:04;;;;;;;4.20;3.80;;;;;;;22.47;52.61;98845.69;6951798;28;20309;-77
2022/08/01 04:47:26;;;;;;;3.90;3.60;;;;;;;22.36;52.31;98824.03;6950978;28;20203;-77
2022/08/01 04:50:48;;;;;;;4.77;3.97;;;;;;;22.56;52.24;98848.69;6950433;28;20271;-77
2022/08/01 04:54:10;;;;;;;4.87;4.00;;;;;;;22.42;53.09;98836.63;6950808;28;20367;-77
2022/08/01 04:57:32;;;;;;;4.23;3.90;;;;;;;22.59;52.95;98859.94;6951182;28;20240;-77
2022/08/01 05:00:57;;;;;;;5.70;3.80;;;;;;;22.65;53.20;98849.78;6945698;28;20247;-77
2022/08/01 05:04:19;;;;;;;4.57;3.77;;;;;;;22.96;52.54;98849.31;6951292;28;20210;-78
2022/08/01 05:07:41;;;;;;;3.90;3.43;;;;;;;23.22;51.84;98848.09;6950480;28;20232;-78
2022/08/01 05:11:04;;;;;;;4.10;3.70;;;;;;;23.31;51.90;98846.38;6949947;28;20234;-77
2022/08/01 05:14:26;;;;;;;4.60;3.80;;;;;;;23.28;51.94;98833.19;6950559;28;20546;-78
2022/08/01 05:17:48;;;;;;;4.13;3.73;;;;;;;23.06;52.28;98802.50;6948741;28;20269;-79
2022/08/01 05:21:09;;;;;;;4.20;3.80;;;;;;;23.19;51.97;98825.84;6942027;28;20702;-78
2022/08/01 05:24:31;;;;;;;4.27;3.20;;;;;;;23.84;50.34;98803.25;6948836;28;20218;-79
2022/08/01 05:27:54;;;;;;;3.40;3.10;;;;;;;24.76;48.83;98833.09;6949274;28;20206;-77
2022/08/01 05:31:16;;;;;;;4.77;3.83;;;;;;;25.12;48.12;98834.28;6949343;28;20315;-77
2022/08/01 05:34:37;;;;;;;3.37;3.07;;;;;;;25.35;48.22;98836.97;6949657;28;20238;-77
2022/08/01 05:37:59;;;;;;;3.73;3.43;;;;;;;25.71;46.75;98840.00;6949102;28;20227;-77
2022/08/01 05:41:21;;;;;;;5.43;3.53;;;;;;;25.60;46.05;98808.94;6949558;28;20265;-78
2022/08/01 05:44:44;;;;;;;3.30;3.00;;;;;;;26.31;45.22;98830.63;6949319;28;20299;-78
2022/08/01 05:48:06;;;;;;;4.63;3.27;;;;;;;26.31;45.06;98833.41;6949263;28;20211;-78
2022/08/01 05:51:28;;;;;;;4.23;3.47;;;;;;;26.83;44.58;98828.19;6943084;28;20288;-78
2022/08/01 05:54:49;;;;;;;3.63;3.33;;;;;;;27.46;42.49;98831.75;6948332;28;20202;-78
2022/08/01 05:58:11;;;;;;;3.70;3.40;;;;;;;27.27;43.09;98844.09;6948873;28;20208;-78
2022/08/01 06:01:34;;;;;;;3.70;3.27;;;;;;;27.99;41.65;98846.50;6948421;28;20284;-78
2022/08/01 06:04:56;;;;;;;3.93;3.20;;;;;;;28.43;40.61;98826.19;6948768;28;20199;-78
2022/08/01 06:08:18;;;;;;;2.70;2.50;;;;;;;28.46;39.89;98837.47;6948578;28;20755;-78
2022/08/01 06:11:40;;;;;;;3.40;3.10;;;;;;;28.43;40.91;98849.19;6948527;28;20685;-78
2022/08/01 06:15:02;;;;;;;3.90;3.07;;;;;;;28.16;41.74;98854.09;6948662;28;20355;-79
2022/08/01 06:18:25;;;;;;;3.80;2.83;;;;;;;28.23;41.67;98858.06;6947722;28;20261;-77
2022/08/01 06:21:46;;;;;;;3.00;2.70;;;;;;;28.95;39.40;98853.81;6948154;28;20233;-78
2022/08/01 06:25:09;;;;;;;3.03;2.60;;;;;;;28.91;38.43;98844.47;6946582;28;20563;-78
2022/08/01 06:28:31;;;;;;;3.67;2.83;;;;;;;28.79;38.74;98849.81;6947834;28;20195;-79
2022/08/01 06:31:52;;;;;;;3.70;3.00;;;;;;;28.54;39.35;98852.53;6938809;28;20233;-77
2022/08/01 06:35:15;;;;;;;2.90;2.70;;;;;;;29.34;38.11;98847.34;6947813;28;20212;-77
2022/08/01 06:38:37;;;;;;;5.93;3.07;;;;;;;29.56;38.14;98850.00;6945935;28;20228;-77
2022/08/01 06:41:58;;;;;;;4.67;2.87;;;;;;;29.21;38.67;98821.38;6947671;28;20363;-77
2022/08/01 06:45:22;;;;;;;3.33;2.50;;;;;;;29.18;38.22;98804.53;6947274;28;20205;-77
2022/08/01 06:48:43;;;;;;;3.33;2.63;;;;;;;29.04;38.81;98849.13;6946775;28;20521;-77
2022/08/01 06:52:06;;;;;;;3.97;2.50;;;;;;;29.25;38.83;98847.34;6946658;28;20763;-77
2022/08/01 06:55:28;;;;;;;3.67;2.30;;;;;;;29.45;38.39;98841.16;6946576;28;20308;-77
2022/08/01 06:58:50;;;;;;;3.20;2.37;;;;;;;29.55;38.36;98851.16;6946076;28;20210;-77
2022/08/01 07:02:11;;;;;;;3.47;2.17;;;;;;;29.54;38.20;98849.53;6946617;28;20243;-77
2022/08/01 07:05:33;;;;;;;2.50;2.30;;;;;;;30.07;37.11;98831.28;6946113;28;20218;-78
2022/08/01 07:08:56;;;;;;;2.63;2.10;;;;;;;30.19;37.49;98825.09;6945994;28;20308;-78
2022/08/01 07:12:17;;;;;;;1.97;1.77;;;;;;;29.10;39.02;98838.66;6946070;28;20275;-78
2022/08/01 07:15:39;;;;;;;2.60;1.70;;;;;;;30.43;36.13;98801.06;6946840;28;20269;-78
2022/08/01 07:19:00;;;;;;;2.07;1.43;;;;;;;31.01;36.10;98833.72;6946778;28;20336;-78
2022/08/01 07:22:22;;;;;;;2.20;1.57;;;;;;;31.80;34.50;98840.88;6947010;28;20224;-78
2022/08/01 07:25:45;;;;;;;2.57;1.73;;;;;;;31.09;35.53;98839.25;6947765;28;20301;-78
2022/08/01 07:29:06;;;;;;;2.30;2.00;;;;;;;31.51;34.70;98829.78;6946456;28;20669;-78
2022/08/01 07:32:29;;;;;;;1.90;1.70;;;;;;;31.36;35.17;98810.88;6946629;28;20230;-78
2022/08/01 07:35:50;;;;;;;1.60;1.50;;;;;;;32.06;34.48;98835.00;6934660;28;20203;-78
2022/08/01 07:39:12;;;;;;;3.10;2.00;;;;;;;32.13;33.88;98827.69;6933579;28;20241;-78
2022/08/01 07:42:35;;;;;;;2.20;1.80;;;;;;;31.58;34.42;98809.69;6946508;28;20231;-78
2022/08/01 07:45:56;;;;;;;2.20;1.70;;;;;;;31.21;34.93;98819.84;6947411;28;20265;-78
2022/08/01 07:49:18;;;;;;;2.10;1.80;;;;;;;31.55;35.34;98825.13;6946743;28;20304;-78
2022/08/01 07:52:39;;;;;;;3.00;1.80;;;;;;;31.66;34.37;98825.53;6946428;28;20269;-78
2022/08/01 07:56:02;;;;;;;2.40;1.90;;;;;;;32.17;33.54;98827.81;6947879;28;20344;-78
2022/08/01 07:59:25;;;;;;;1.90;1.53;;;;;;;32.89;33.20;98817.59;6946833;28;20209;-78
2022/08/01 08:02:46;;;;;;;3.23;1.70;;;;;;;32.69;33.06;98824.09;6947286;28;20227;-78
2022/08/01 08:06:08;;;;;;;1.57;1.47;;;;;;;33.09;32.00;98825.03;6946840;28;20481;-77
2022/08/01 08:09:30;;;;;;;2.13;1.63;;;;;;;33.25;31.81;98825.94;6936804;28;20298;-79
2022/08/01 08:12:51;;;;;;;1.80;1.70;;;;;;;32.73;32.01;98811.03;6946995;28;20700;-79
2022/08/01 08:16:14;;;;;;;3.50;2.10;;;;;;;31.85;33.81;98803.56;6942492;28;20297;-78
2022/08/01 08:19:38;;;;;;;2.07;1.87;;;;;;;32.53;33.14;98834.31;6947917;28;20295;-79
2022/08/01 08:23:00;;;;;;;2.10;1.70;;;;;;;32.42;32.91;98830.34;6952504;28;20249;-79
2022/08/01 08:26:23;;;;;;;1.90;1.80;;;;;;;32.43;32.82;98812.44;6953096;28;20266;-78
2022/08/01 08:29:44;;;;;;;2.23;1.90;;;;;;;31.83;33.51;98819.84;6949396;28;20244;-79
2022/08/01 08:33:07;;;;;;;1.97;1.77;;;;;;;32.92;32.44;98816.91;6951980;28;20230;-78
2022/08/01 08:36:30;;;;;;;2.23;2.03;;;;;;;32.34;32.82;98808.94;6951786;28;20222;-78
2022/08/01 08:39:52;;;;;;;2.57;1.93;;;;;;;32.09;33.94;98829.56;6950493;28;20575;-79
2022/08/01 08:43:14;;;;;;;1.93;1.83;;;;;;;32.27;33.05;98819.06;6951548;28;20249;-79
2022/08/01 08:46:41;;;;;;;2.10;1.87;;;;;;;32.40;33.61;98815.09;6951778;28;20211;-79
2022/08/01 08:50:05;;;;;;;4.17;2.03;;;;;;;33.55;32.04;98818.88;6952979;28;20259;-79
2022/08/01 08:53:27;;;;;;;3.17;2.30;;;;;;;33.55;31.42;98816.09;6952751;28;20234;-79
2022/08/01 08:56:50;;;;;;;2.10;1.87;;;;;;;33.87;30.65;98822.63;6962307;28;20203;-79
2022/08/01 09:00:12;;;;;;;3.23;2.40;;;;;;;33.13;31.97;98802.81;6960083;28;20234;-79
2022/08/01 09:03:34;;;;;;;4.17;2.57;;;;;;;33.70;31.21;98820.09;6951031;28;20231;-78
2022/08/01 09:06:57;;;;;;;3.23;2.50;;;;;;;31.89;33.51;98802.53;6951138;28;20222;-79
2022/08/01 09:10:19;;;;;;;4.50;1.97;;;;;;;32.62;32.96;98812.69;6950715;28;20548;-79
2022/08/01 09:13:40;;;;;;;2.60;2.27;;;;;;;33.32;31.53;98789.81;6950987;28;20274;-79
2022/08/01 09:17:06;;;;;;;2.30;2.03;;;;;;;33.69;31.66;98810.94;6951339;28;20246;-79
2022/08/01 09:20:27;;;;;;;2.10;2.00;;;;;;;32.88;32.70;98812.34;6950425;28;20264;-79
2022/08/01 09:23:52;;;;;;;2.77;2.10;;;;;;;33.50;31.19;98807.16;6950951;28;20259;-79
2022/08/01 09:27:18;;;;;;;2.47;2.10;;;;;;;33.32;31.70;98828.97;6949073;28;20338;-79
2022/08/01 09:30:40;;;;;;;2.57;1.93;;;;;;;33.99;30.83;98828.16;6949549;28;20211;-78
2022/08/01 09:34:03;;;;;;;2.50;2.00;;;;;;;34.24;30.26;98827.69;6950560;28;20238;-79
2022/08/01 09:37:31;;;;;;;2.50;2.30;;;;;;;34.70;29.19;98814.91;6950509;28;20357;-79
2022/08/01 09:40:55;;;;;;;3.73;2.10;;;;;;;35.19;29.20;98819.72;6949385;28;20280;-79
2022/08/01 09:44:18;;;;;;;4.57;2.27;;;;;;;34.13;30.10;98825.78;6950723;28;20400;-78
2022/08/01 09:47:40;;;;;;;3.10;2.33;;;;;;;33.89;29.75;98823.91;6951019;28;20211;-81
2022/08/01 09:51:02;;;;;;;3.37;2.60;;;;;;;32.83;32.20;98824.59;6951749;28;20210;-82
2022/08/01 09:54:32;;;;;;;3.00;2.20;;;;;;;34.54;29.67;98825.31;6943570;28;20237;-78
2022/08/01 09:57:58;;;;;;;3.17;2.50;;;;;;;34.12;30.03;98830.56;6943981;28;20551;-77
2022/08/01 10:01:21;;;;;;;2.70;2.50;;;;;;;32.65;31.72;98812.00;6948935;28;20223;-77
2022/08/01 10:04:52;;;;;;;3.23;2.50;;;;;;;32.93;31.33;98821.34;6948600;28;20203;-78
2022/08/01 10:08:14;;;;;;;4.43;2.63;;;;;;;33.54;30.78;98813.66;6949930;28;20782;-78
2022/08/01 10:11:38;;;;;;;2.57;2.37;;;;;;;34.25;30.00;98814.50;6949980;28;20680;-79
2022/08/01 10:15:02;;;;;;;3.13;2.60;;;;;;;34.16;29.97;98816.66;6955232;28;20210;-78
2022/08/01 10:18:24;;;;;;;3.40;3.10;;;;;;;33.06;30.66;98813.72;6948573;28;20290;-78
2022/08/01 10:21:49;;;;;;;4.57;3.03;;;;;;;33.28;31.21;98808.50;6956509;28;20328;-78
2022/08/01 10:25:12;;;;;;;3.37;3.07;;;;;;;33.95;30.06;98819.69;6949909;28;20244;-78
2022/08/01 10:28:36;;;;;;;3.63;3.33;;;;;;;32.89;31.97;98800.84;6948031;28;20250;-79
2022/08/01 10:31:59;;;;;;;3.33;2.90;;;;;;;33.18;31.54;98800.56;6949046;28;20255;-79
2022/08/01 10:35:21;;;;;;;4.23;3.27;;;;;;;33.70;30.54;98781.78;6951084;28;20884;-79
2022/08/01 10:38:42;;;;;;;3.23;2.90;;;;;;;34.36;29.65;98801.63;6949417;28;20279;-79
2022/08/01 10:42:05;;;;;;;3.30;3.00;;;;;;;34.71;28.62;98782.91;6951044;28;20246;-81
2022/08/01 10:45:41;;;;;;;3.40;2.90;;;;;;;33.96;29.34;98792.53;6965725;28;20192;-79
2022/08/01 10:49:08;;;;;;;3.60;2.80;;;;;;;34.15;28.99;98787.88;6922441;28;20258;-80
2022/08/01 10:52:30;;;;;;;4.10;2.70;;;;;;;33.67;29.96;98792.88;6937806;28;20265;-79
2022/08/01 10:55:54;;;;;;;4.63;2.90;;;;;;;33.96;28.96;98793.31;6950293;28;20219;-80
2022/08/01 10:59:21;;;;;;;3.40;2.53;;;;;;;32.98;30.69;98793.16;6949994;28;20284;-80
2022/08/01 11:03:00;;;;;;;2.93;2.37;;;;;;;33.84;29.75;98804.56;6950700;28;20222;-79
2022/08/01 11:06:26;;;;;;;3.10;2.30;;;;;;;34.61;28.49;98794.69;6949409;28;20210;-79
2022/08/01 11:09:48;;;;;;;3.27;2.60;;;;;;;34.13;28.87;98781.78;6947801;28;20195;-80
2022/08/01 11:13:11;;;;;;;2.70;2.50;;;;;;;33.69;29.41;98756.94;6948357;28;20231;-79
2022/08/01 11:16:33;;;;;;;4.87;3.03;;;;;;;34.35;28.23;98777.59;6948051;28;20211;-80
2022/08/01 11:20:09;;;;;;;3.30;3.00;;;;;;;34.19;28.75;98779.56;6948390;28;20214;-79
2022/08/01 11:23:48;;;;;;;3.03;2.57;;;;;;;34.27;28.79;98748.63;6947849;28;20251;-79
2022/08/01 11:27:19;;;;;;;2.93;2.60;;;;;;;34.37;28.68;98762.06;6947581;28;20231;-79
2022/08/01 11:30:42;;;;;;;2.33;2.20;;;;;;;34.47;28.50;98761.53;6948480;28;20199;-79
2022/08/01 11:34:04;;;;;;;2.30;2.10;;;;;;;35.17;26.86;98757.59;6951899;28;20308;-79
2022/08/01 11:37:26;;;;;;;3.90;2.67;;;;;;;34.64;27.66;98752.75;6957593;28;20226;-79
2022/08/01 11:41:14;;;;;;;2.60;2.40;;;;;;;34.97;27.54;98741.91;6950039;28;20217;-77
2022/08/01 11:44:49;;;;;;;3.20;2.20;;;;;;;35.28;27.38;98750.28;6949593;28;20214;-80
2022/08/01 11:48:19;;;;;;;4.03;2.50;;;;;;;34.25;28.42;98731.31;6948980;28;20219;-79
2022/08/01 11:51:40;;;;;;;4.10;2.30;;;;;;;33.05;29.44;98751.47;6951398;28;20750;-79
2022/08/01 11:55:08;;;;;;;4.87;2.27;;;;;;;33.25;29.21;98756.03;6952957;28;20203;-81
2022/08/01 11:58:33;;;;;;;3.00;2.07;;;;;;;34.41;27.97;98722.94;6955241;28;20199;-79
2022/08/01 12:01:55;;;;;;;3.17;2.20;;;;;;;33.85;28.35;98724.28;6954922;28;20227;-80
2022/08/01 12:05:20;;;;;;;3.97;2.13;;;;;;;33.61;29.29;98741.94;6954998;28;20202;-79
2022/08/01 12:08:41;;;;;;;4.80;2.30;;;;;;;33.77;29.16;98734.44;6952904;28;20285;-79
2022/08/01 12:12:04;;;;;;;2.60;2.40;;;;;;;33.66;28.94;98740.91;6954251;28;20238;-78
2022/08/01 12:15:32;;;;;;;3.07;2.20;;;;;;;32.78;29.91;98726.25;6937509;28;20218;-79
2022/08/01 12:18:54;;;;;;;2.77;2.30;;;;;;;32.78;30.56;98713.09;6940324;28;20315;-79
2022/08/01 12:22:15;;;;;;;2.50;2.30;;;;;;;33.09;29.82;98710.47;6952464;28;20313;-78
2022/08/01 12:25:39;;;;;;;2.50;2.20;;;;;;;33.36;29.02;98725.66;6952031;28;20204;-78
2022/08/01 12:29:01;;;;;;;3.10;2.00;;;;;;;33.45;28.88;98703.94;6951631;28;20236;-80
2022/08/01 12:32:27;;;;;;;2.40;2.20;;;;;;;34.62;27.82;98713.09;6925023;28;20228;-78
2022/08/01 12:35:49;;;;;;;3.53;2.17;;;;;;;33.95;28.07;98709.75;6930999;28;20199;-78
2022/08/01 12:39:11;;;;;;;3.00;2.20;;;;;;;34.45;27.93;98699.47;6951542;28;20230;-79
2022/08/01 12:42:32;;;;;;;2.17;2.00;;;;;;;34.66;26.76;98690.75;6955048;28;20234;-79
2022/08/01 12:45:54;;;;;;;2.47;2.20;;;;;;;34.63;27.53;98688.66;6957533;28;20211;-78
2022/08/01 12:49:17;;;;;;;5.87;2.40;;;;;;;34.15;27.98;98686.28;6959310;28;20207;-78
2022/08/01 12:52:39;;;;;;;2.47;2.27;;;;;;;33.63;28.85;98700.47;6958200;28;20231;-77
2022/08/01 12:56:00;;;;;;;2.07;1.97;;;;;;;33.03;29.07;98699.88;6953338;28;20339;-78
2022/08/01 12:59:25;;;;;;;2.33;1.90;;;;;;;33.58;28.87;98688.72;6948597;28;20649;-78
2022/08/01 13:02:47;;;;;;;2.93;2.00;;;;;;;33.66;28.92;98705.34;6952037;28;20692;-78
2022/08/01 13:06:15;;;;;;;2.50;2.30;;;;;;;32.49;30.37;98688.19;6950929;28;20207;-78
2022/08/01 13:09:36;;;;;;;2.13;1.93;;;;;;;33.10;29.80;98709.31;6966866;28;20249;-78
2022/08/01 13:13:00;;;;;;;2.53;1.90;;;;;;;33.64;29.26;98701.28;6977721;28;20231;-78
2022/08/01 13:16:23;;;;;;;2.63;2.30;;;;;;;33.65;28.97;98705.69;6966657;28;20206;-78
2022/08/01 13:19:46;;;;;;;2.33;2.17;;;;;;;34.27;28.47;98697.41;6962894;28;20238;-78
2022/08/01 13:23:13;;;;;;;2.80;2.23;;;;;;;34.34;28.14;98700.38;6967297;28;20199;-78
2022/08/01 13:26:42;;;;;;;3.47;2.37;;;;;;;34.59;27.77;98694.19;6956675;28;20214;-77
2022/08/01 13:30:12;;;;;;;2.40;2.07;;;;;;;34.63;27.70;98669.88;6949512;28;20260;-78
2022/08/01 13:33:41;;;;;;;3.37;2.47;;;;;;;35.37;27.10;98685.56;6922337;28;20239;-77
2022/08/01 13:37:03;;;;;;;2.10;2.00;;;;;;;36.08;25.96;98669.66;6923438;28;20289;-77
2022/08/01 13:40:27;;;;;;;2.37;2.10;;;;;;;36.42;24.97;98682.69;6922341;28;20203;-77
2022/08/01 13:43:49;;;;;;;4.00;2.17;;;;;;;35.81;24.92;98670.81;6924107;28;20746;-78
2022/08/01 13:47:11;;;;;;;3.23;2.17;;;;;;;35.21;25.96;98649.16;6940999;28;20704;-78
2022/08/01 13:50:32;;;;;;;2.77;1.83;;;;;;;35.04;26.54;98674.84;6950062;28;20553;-78
2022/08/01 13:53:54;;;;;;;2.10;1.90;;;;;;;34.66;27.44;98659.94;6947089;28;20258;-78
2022/08/01 13:57:17;;;;;;;2.97;1.83;;;;;;;34.72;27.46;98666.88;6935579;28;20203;-78
2022/08/01 14:00:38;;;;;;;3.73;2.20;;;;;;;33.96;28.73;98647.03;6947715;28;20195;-77
2022/08/01 14:04:00;;;;;;;3.77;2.47;;;;;;;34.77;27.67;98656.22;6948674;28;20219;-77
2022/08/01 14:07:22;;;;;;;2.00;1.80;;;;;;;35.11;26.89;98669.38;6949363;28;20218;-78
2022/08/01 14:10:44;;;;;;;2.23;2.10;;;;;;;35.48;25.86;98664.16;6948456;28;20211;-78
2022/08/01 14:14:06;;;;;;;3.00;2.03;;;;;;;34.27;27.52;98667.44;6946359;28;20895;-78
2022/08/01 14:17:28;;;;;;;5.57;2.10;;;;;;;34.12;27.98;98668.22;6949095;28;20713;-78
2022/08/01 14:20:50;;;;;;;2.87;1.50;;;;;;;34.16;28.13;98655.13;6949894;28;20606;-79
2022/08/01 14:24:11;;;;;;;3.10;1.70;;;;;;;34.17;28.54;98653.94;6949944;28;20234;-78
2022/08/01 14:27:35;;;;;;;2.10;1.77;;;;;;;34.57;27.79;98662.13;6949868;28;20204;-78
2022/08/01 14:30:59;;;;;;;3.97;1.90;;;;;;;35.55;26.59;98673.47;6949830;28;20310;-78
2022/08/01 14:34:20;;;;;;;2.23;1.97;;;;;;;35.04;26.83;98666.44;6951444;28;20373;-79
2022/08/01 14:37:42;;;;;;;2.10;1.90;;;;;;;34.35;27.86;98654.38;6949529;28;20289;-78
2022/08/01 14:41:04;;;;;;;2.53;1.70;;;;;;;34.54;27.40;98658.06;6952188;28;20288;-79
2022/08/01 14:44:25;;;;;;;1.90;1.70;;;;;;;34.75;27.41;98635.34;6948681;28;20573;-78
2022/08/01 14:47:48;;;;;;;1.73;1.63;;;;;;;34.19;28.20;98662.78;6945373;28;20215;-79
2022/08/01 14:51:10;;;;;;;1.77;1.63;;;;;;;34.02;28.22;98657.56;6948679;28;20215;-78
2022/08/01 14:54:31;;;;;;;1.80;1.70;;;;;;;33.11;29.47;98662.59;6948734;28;20247;-79
2022/08/01 14:57:53;;;;;;;2.13;1.87;;;;;;;33.66;29.36;98663.38;6948905;28;20214;-79
2022/08/01 15:01:15;;;;;;;3.67;2.03;;;;;;;33.90;28.80;98651.25;6952855;28;20602;-79
2022/08/01 15:04:38;;;;;;;3.70;1.93;;;;;;;34.72;28.08;98642.47;6938205;28;20204;-80
2022/08/01 15:07:59;;;;;;;2.03;1.93;;;;;;;34.57;27.83;98637.75;6927876;28;20199;-80
2022/08/01 15:11:21;;;;;;;3.57;2.13;;;;;;;34.93;27.86;98653.34;6927390;28;20251;-79
2022/08/01 15:14:48;;;;;;;2.40;2.20;;;;;;;34.15;28.90;98663.88;6931701;28;20239;-80
2022/08/01 15:18:10;;;;;;;2.10;2.00;;;;;;;33.19;29.81;98667.22;6928089;28;20200;-79
2022/08/01 15:21:33;;;;;;;2.07;1.93;;;;;;;33.14;29.83;98659.09;6943240;28;20263;-80
2022/08/01 15:24:55;;;;;;;2.10;1.90;;;;;;;32.69;30.08;98642.56;6950613;28;20214;-80
2022/08/01 15:28:17;;;;;;;2.20;2.00;;;;;;;32.96;29.92;98657.78;6955545;28;20591;-80
2022/08/01 15:31:39;;;;;;;1.90;1.80;;;;;;;32.98;30.15;98658.22;6956645;28;20621;-80
2022/08/01 15:35:00;;;;;;;2.80;2.43;;;;;;;33.24;29.38;98664.16;6966107;28;20284;-80
2022/08/01 15:38:23;;;;;;;3.03;2.13;;;;;;;33.70;28.91;98672.69;6953753;28;20207;-80
2022/08/01 15:41:44;;;;;;;4.00;2.00;;;;;;;34.18;28.39;98675.16;6954963;28;20467;-80
2022/08/01 15:45:07;;;;;;;2.20;2.00;;;;;;;33.58;28.89;98671.94;6972641;28;20203;-80
2022/08/01 15:48:29;;;;;;;1.97;1.70;;;;;;;33.14;29.35;98673.88;6950263;28;20666;-80
2022/08/01 15:51:51;;;;;;;2.43;1.80;;;;;;;33.69;28.98;98671.06;6952068;28;20284;-80
2022/08/01 15:55:13;;;;;;;2.40;1.93;;;;;;;33.24;29.03;98664.16;6953411;28;20230;-81
2022/08/01 15:58:35;;;;;;;2.30;2.10;;;;;;;33.44;29.01;98663.19;6953950;28;20217;-80